createdAt,value
2023-04-15T00:03:36.421Z,100086.55
2023-04-15T00:08:41.943Z,100076.67
2023-04-15T00:13:47.368Z,100078.66
2023-04-15T00:18:52.604Z,100075.13
2023-04-15T00:23:58.073Z,100073.45
2023-04-15T00:29:03.322Z,100072.16
2023-04-15T00:34:08.628Z,100070.73
2023-04-15T00:39:14.178Z,100068.23
2023-04-15T00:44:19.646Z,100070.02
2023-04-15T00:49:24.977Z,100064.58
2023-04-15T00:54:30.295Z,100064.48
2023-04-15T00:59:36.144Z,100059.52
2023-04-15T01:04:42.189Z,100054.58
2023-04-15T01:09:48.086Z,100059.91
2023-04-15T01:14:53.751Z,100052.71
2023-04-15T01:19:59.234Z,100047.73
2023-04-15T01:25:13.159Z,100047.77
2023-04-15T01:30:18.563Z,100049.61
2023-04-15T01:35:24.359Z,100051.77
2023-04-15T01:40:29.940Z,100046.77
2023-04-15T01:45:35.269Z,100043.89
2023-04-15T01:50:40.666Z,100044.96
2023-04-15T01:55:46.033Z,100038.58
2023-04-15T02:00:51.541Z,100038.66
2023-04-15T02:05:56.940Z,100031.05
2023-04-15T02:11:02.311Z,100036.99
2023-04-15T02:16:17.643Z,100034.24
2023-04-15T02:21:22.991Z,100033.52
2023-04-15T02:26:28.774Z,100036.78
2023-04-15T02:31:37.009Z,100034.26
2023-04-15T02:36:42.445Z,100031.92
2023-04-15T02:41:51.907Z,100033.69
2023-04-15T02:46:58.343Z,100035.15
2023-04-15T02:52:03.632Z,100038.80
2023-04-15T02:57:09.055Z,100045.90
2023-04-15T03:02:14.501Z,100046.80
2023-04-15T03:07:20.277Z,100040.97
2023-04-15T03:12:25.911Z,100043.77
2023-04-15T03:17:31.247Z,100044.70
2023-04-15T03:22:36.618Z,100041.56
2023-04-15T03:27:42.020Z,100045.33
2023-04-15T03:32:47.527Z,100050.27
2023-04-15T03:37:52.956Z,100051.83
2023-04-15T03:42:58.333Z,100050.75
2023-04-15T03:48:16.541Z,100052.42
2023-04-15T03:53:23.049Z,100044.64
2023-04-15T03:58:28.350Z,100048.03
2023-04-15T04:03:34.002Z,100047.11
2023-04-15T04:08:39.747Z,100050.84
2023-04-15T04:13:45.079Z,100048.73
2023-04-15T04:18:50.390Z,100057.55
2023-04-15T04:23:56.786Z,100057.55
2023-04-15T04:29:02.244Z,100059.39
2023-04-15T04:34:07.790Z,100061.69
2023-04-15T04:39:13.030Z,100062.52
2023-04-15T04:44:18.314Z,100064.82
2023-04-15T04:49:23.536Z,100061.34
2023-04-15T04:54:28.992Z,100067.20
2023-04-15T04:59:34.331Z,100071.95
2023-04-15T05:04:39.645Z,100074.85
2023-04-15T05:09:44.877Z,100082.02
2023-04-15T05:14:50.238Z,100078.30
2023-04-15T05:19:55.836Z,100086.12
2023-04-15T05:25:01.200Z,100087.91
2023-04-15T05:30:08.870Z,100091.05
2023-04-15T05:35:14.292Z,100094.10
2023-04-15T05:40:20.150Z,100096.13
2023-04-15T05:45:25.549Z,100094.48
2023-04-15T05:50:31.296Z,100095.72
2023-04-15T05:55:36.919Z,100098.61
2023-04-15T06:00:42.369Z,100097.58
2023-04-15T06:05:47.647Z,100098.62
2023-04-15T06:10:53.004Z,100094.39
2023-04-15T06:15:58.545Z,100092.66
2023-04-15T06:21:04.490Z,100096.29
2023-04-15T06:26:09.936Z,100097.23
2023-04-15T06:31:16.047Z,100096.98
2023-04-15T06:36:21.707Z,100097.39
2023-04-15T06:41:26.969Z,100097.59
2023-04-15T06:46:32.689Z,100102.36
2023-04-15T06:51:38.058Z,100108.17
2023-04-15T06:56:43.425Z,100109.27
2023-04-15T07:01:48.691Z,100116.83
2023-04-15T07:06:55.563Z,100126.20
2023-04-15T07:12:00.891Z,100130.85
2023-04-15T07:17:06.753Z,100136.73
2023-04-15T07:22:12.123Z,100141.81
2023-04-15T07:27:18.016Z,100143.44
2023-04-15T07:32:23.255Z,100152.15
2023-04-15T07:37:28.617Z,100160.75
2023-04-15T07:42:34.240Z,100164.15
2023-04-15T07:47:40.793Z,100167.80
2023-04-15T07:52:46.470Z,100169.84
2023-04-15T07:57:52.012Z,100169.52
2023-04-15T08:02:59.656Z,100169.94
2023-04-15T08:08:05.191Z,100174.77
2023-04-15T08:13:10.952Z,100177.39
2023-04-15T08:18:16.438Z,100178.41
2023-04-15T08:23:21.701Z,100184.54
2023-04-15T08:28:27.182Z,100188.08
2023-04-15T08:33:32.564Z,100193.75
2023-04-15T08:38:38.067Z,100193.58
2023-04-15T08:43:51.798Z,100191.59
2023-04-15T08:48:59.974Z,100198.94
2023-04-15T08:54:09.629Z,100202.61
2023-04-15T08:59:18.334Z,100201.83
2023-04-15T09:09:57.826Z,100206.79
2023-04-15T09:15:04.149Z,100211.28
2023-04-15T09:20:15.040Z,100212.27
2023-04-15T09:25:32.764Z,100217.00
2023-04-15T09:30:43.262Z,100223.38
2023-04-15T09:35:59.088Z,100225.64
2023-04-15T09:41:16.891Z,100229.71
2023-04-15T09:46:40.293Z,100238.14
2023-04-15T09:51:57.606Z,100241.41
2023-04-15T09:57:10.866Z,100244.93
2023-04-15T10:02:18.870Z,100247.48
2023-04-15T10:07:25.687Z,100248.48
2023-04-15T10:12:33.557Z,100253.77
2023-04-15T10:17:42.512Z,100259.63
2023-04-15T10:22:48.668Z,100263.34
2023-04-15T10:27:54.264Z,100267.11
2023-04-15T10:33:00.221Z,100267.69
2023-04-15T10:38:35.663Z,100266.61
2023-04-15T10:43:45.522Z,100270.43
2023-04-15T10:48:52.682Z,100269.59
2023-04-15T10:54:00.005Z,100273.32
2023-04-15T10:59:07.469Z,100275.72
2023-04-15T11:04:12.849Z,100275.47
2023-04-15T11:09:34.453Z,100286.31
2023-04-15T11:14:43.427Z,100292.94
2023-04-15T11:19:48.928Z,100298.67
2023-04-15T11:24:54.561Z,100300.98
2023-04-15T11:29:59.988Z,100307.70
2023-04-15T11:35:06.239Z,100311.42
2023-04-15T11:40:12.595Z,100311.30
2023-04-15T11:45:18.387Z,100316.80
2023-04-15T11:50:24.944Z,100323.82
2023-04-15T11:55:31.465Z,100330.16
2023-04-15T12:00:38.139Z,100334.13
2023-04-15T12:06:04.827Z,100339.39
2023-04-15T12:11:10.377Z,100340.85
2023-04-15T12:16:19.558Z,100346.98
2023-04-15T12:21:26.576Z,100348.69
2023-04-15T12:26:34.266Z,100356.80
2023-04-15T12:31:49.645Z,100358.29
2023-04-15T12:36:55.851Z,100359.34
2023-04-15T12:42:01.652Z,100363.17
2023-04-15T12:47:08.871Z,100368.76
2023-04-15T12:52:15.128Z,100376.73
2023-04-15T12:57:20.527Z,100377.55
2023-04-15T13:02:28.596Z,100385.06
2023-04-15T13:07:34.141Z,100387.62
2023-04-15T13:12:39.493Z,100389.26
2023-04-15T13:17:44.774Z,100394.43
2023-04-15T13:22:50.418Z,100399.89
2023-04-15T13:27:55.894Z,100399.97
2023-04-15T13:33:01.285Z,100403.30
2023-04-15T13:38:06.684Z,100405.70
2023-04-15T13:43:12.247Z,100411.73
2023-04-15T13:48:17.728Z,100413.58
2023-04-15T13:53:33.863Z,100417.00
2023-04-15T13:58:44.677Z,100429.35
2023-04-15T14:03:50.100Z,100431.11
2023-04-15T14:08:56.105Z,100436.83
2023-04-15T14:14:01.381Z,100436.19
2023-04-15T14:19:07.017Z,100442.90
2023-04-15T14:24:12.783Z,100449.28
2023-04-15T14:29:18.189Z,100458.14
2023-04-15T14:34:25.328Z,100465.09
2023-04-15T14:39:30.831Z,100473.36
2023-04-15T14:44:36.176Z,100477.89
2023-04-15T14:49:41.618Z,100480.60
2023-04-15T14:54:46.951Z,100484.90
2023-04-15T14:59:56.557Z,100493.31
2023-04-15T15:05:02.729Z,100498.86
2023-04-15T15:10:10.672Z,100503.08
2023-04-15T15:15:28.184Z,100508.83
2023-04-15T15:20:35.414Z,100510.70
2023-04-15T15:25:40.792Z,100518.52
2023-04-15T15:30:46.215Z,100520.88
2023-04-15T15:35:51.972Z,100523.36
2023-04-15T15:40:57.285Z,100529.38
2023-04-15T15:46:03.768Z,100532.63
2023-04-15T15:51:10.902Z,100532.09
2023-04-15T15:56:16.294Z,100536.44
2023-04-15T16:01:21.934Z,100541.91
2023-04-15T16:06:27.411Z,100546.48
2023-04-15T16:11:32.713Z,100550.45
2023-04-15T16:16:38.422Z,100553.82
2023-04-15T16:21:44.661Z,100556.39
2023-04-15T16:26:50.633Z,100565.20
2023-04-15T16:31:56.460Z,100566.27
2023-04-15T16:37:02.621Z,100572.77
2023-04-15T16:42:08.065Z,100578.70
2023-04-15T16:47:13.368Z,100579.38
2023-04-15T16:52:18.750Z,100583.30
2023-04-15T16:57:24.668Z,100584.89
2023-04-15T17:02:36.859Z,100591.69
2023-04-15T17:07:42.457Z,100599.88
2023-04-15T17:12:47.748Z,100601.33
2023-04-15T17:17:53.283Z,100602.36
2023-04-15T17:22:58.634Z,100610.21
2023-04-15T17:28:04.325Z,100618.66
2023-04-15T17:33:50.555Z,100627.01
2023-04-15T17:38:34.947Z,100635.27
2023-04-15T17:43:40.392Z,100641.55
2023-04-15T17:48:45.829Z,100651.39
2023-04-15T17:53:51.463Z,100652.12
2023-04-15T17:58:58.341Z,100658.65
2023-04-15T18:04:04.004Z,100666.11
2023-04-15T18:09:09.843Z,100673.22
2023-04-15T18:14:23.532Z,100678.47
2023-04-15T18:19:38.772Z,100688.65
2023-04-15T18:24:44.365Z,100695.47
2023-04-15T18:29:50.637Z,100699.77
2023-04-15T18:34:56.425Z,100706.38
2023-04-15T18:40:01.873Z,100715.46
2023-04-15T18:45:08.709Z,100722.48
2023-04-15T18:50:14.090Z,100727.80
2023-04-15T18:55:19.638Z,100734.69
2023-04-15T19:00:25.264Z,100737.25
2023-04-15T19:05:31.153Z,100744.52
2023-04-15T19:10:36.770Z,100745.34
2023-04-15T19:15:42.240Z,100752.27
2023-04-15T19:20:50.197Z,100759.88
2023-04-15T19:25:57.050Z,100762.73
2023-04-15T19:31:02.449Z,100770.62
2023-04-15T19:36:08.533Z,100769.00
2023-04-15T19:41:14.500Z,100772.94
2023-04-15T19:46:20.432Z,100786.85
2023-04-15T19:51:26.772Z,100784.64
2023-04-15T19:56:34.248Z,100786.78
2023-04-15T20:01:40.098Z,100792.01
2023-04-15T20:06:45.490Z,100795.34
2023-04-15T20:12:46.906Z,100796.83
2023-04-15T20:17:16.494Z,100799.42
2023-04-15T20:22:22.055Z,100800.52
2023-04-15T20:27:27.604Z,100803.61
2023-04-15T20:32:35.927Z,100811.89
2023-04-15T20:37:45.043Z,100811.06
2023-04-15T20:42:50.586Z,100815.59
2023-04-15T20:47:56.561Z,100817.17
2023-04-15T20:53:02.490Z,100815.59
2023-04-15T20:58:08.150Z,100818.07
2023-04-15T21:03:13.888Z,100822.74
2023-04-15T21:08:19.421Z,100827.10
2023-04-15T21:13:25.640Z,100831.35
2023-04-15T21:18:31.412Z,100832.08
2023-04-15T21:23:36.778Z,100836.42
2023-04-15T21:28:42.324Z,100843.97
2023-04-15T21:33:47.970Z,100849.33
2023-04-15T21:38:53.256Z,100855.09
2023-04-15T21:43:58.691Z,100859.77
2023-04-15T21:49:04.613Z,100862.58
2023-04-15T21:54:10.320Z,100866.73
2023-04-15T21:59:15.567Z,100872.34
2023-04-15T22:04:21.091Z,100880.48
2023-04-15T22:09:26.506Z,100880.80
2023-04-15T22:14:32.430Z,100884.65
2023-04-15T22:19:37.893Z,100888.27
2023-04-15T22:24:43.149Z,100890.92
2023-04-15T22:29:48.780Z,100904.96
2023-04-15T22:34:54.258Z,100905.88
2023-04-15T22:39:59.823Z,100911.55
2023-04-15T22:45:06.501Z,100912.38
2023-04-15T22:50:12.320Z,100917.09
2023-04-15T22:55:18.144Z,100923.95
2023-04-15T23:00:23.509Z,100930.16
2023-04-15T23:05:28.883Z,100930.77
2023-04-15T23:10:34.642Z,100936.05
2023-04-15T23:15:39.910Z,100939.28
2023-04-15T23:20:45.861Z,100946.60
2023-04-15T23:25:51.155Z,100946.05
2023-04-15T23:30:57.971Z,100952.85
2023-04-15T23:36:05.003Z,100954.11
2023-04-15T23:41:11.913Z,100953.89
2023-04-15T23:46:17.273Z,100952.70
2023-04-15T23:51:22.908Z,100957.52
2023-04-15T23:56:28.189Z,100955.06
